PWSweather.com
Personal Weather Stations
Station Observations
GIRWX1
Presovsky Kraj, GiraltovceSK

Presovsky KrajGiraltovceSK

Lat: 49.118, Lon: 21.52

Elevation: 630

Station Type: wh1080

http://www.meteogiraltovce.wz.cz/

Latest ConditionsUpdated 6:25:00 PM GMT+01:01 Wednesday, Jul 17, 2019
Currently Today's Max Today's Min Today's Average
Temperature 70.2°F21.2°C 76.3°F24.6°C 46.4°F8.0°C 63.8°F17.7°C
Dew Point 48.4°F9.1°C 54.5°F12.5°C 42.3°F5.7°C 49.0°F9.4°C
Winds 4.4 mph NE7.1 kmh NE 13.2 mph -21.2 kmh - - 4.2 mph 6.8 kmh
Wind Gusts 6.0 mph9.7 kmh 20.6 mph33.2 kmh - -
Humidity 46% 94% 39% 61%
Pressure 29.86 in1011.2 mb 29.93 in1013.5 mb 29.84 in1010.5 mb -
Hour Temp Dew Point Humidity Winds Wind Gusts Pressure Precip Precip Rate Daily Precip Total
06:25 PM 70.2°F21.2°C 48.4°F9.1°C 46% 4.4 mph NE7.1 kmh NE 6.0 mph9.7 kmh 29.86 in1011.2 mb 0.00 in0.0 mm 0.00 in0.0 mm 0.00 in0.0 mm
06:20 PM 70.4°F21.3°C 49.2°F9.6°C 47% 7.0 mph NNE11.3 kmh NNE 11.4 mph18.3 kmh 29.86 in1011.2 mb 0.00 in0.0 mm 0.00 in0.0 mm 0.00 in0.0 mm
06:15 PM 70.5°F21.4°C 49.3°F9.6°C 47% 3.5 mph N5.6 kmh N 6.0 mph9.7 kmh 29.86 in1011.2 mb 0.00 in0.0 mm 0.00 in0.0 mm 0.00 in0.0 mm
06:10 PM 70.5°F21.4°C 49.3°F9.6°C 47% 5.4 mph N8.7 kmh N 9.8 mph15.8 kmh 29.86 in1011.2 mb 0.00 in0.0 mm 0.00 in0.0 mm 0.00 in0.0 mm
06:05 PM 70.5°F21.4°C 49.3°F9.6°C 47% 8.3 mph 13.4 kmh 11.4 mph18.3 kmh 29.86 in1011.2 mb 0.00 in0.0 mm 0.00 in0.0 mm 0.00 in0.0 mm
06:00 PM 70.5°F21.4°C 49.3°F9.6°C 47% 7.6 mph NNW12.2 kmh NNW 11.4 mph18.3 kmh 29.86 in1011.2 mb 0.00 in0.0 mm 0.00 in0.0 mm 0.00 in0.0 mm
05:55 PM 70.5°F21.4°C 48.9°F9.4°C 46% 5.9 mph N9.5 kmh N 9.2 mph14.8 kmh 29.86 in1011.2 mb 0.00 in0.0 mm 0.00 in0.0 mm 0.00 in0.0 mm
05:50 PM 70.5°F21.4°C 48.8°F9.3°C 46% 5.3 mph N8.5 kmh N 7.6 mph12.2 kmh 29.85 in1010.8 mb 0.00 in0.0 mm 0.00 in0.0 mm 0.00 in0.0 mm
05:45 PM 70.6°F21.4°C 48.8°F9.3°C 46% 5.6 mph N9.0 kmh N 10.7 mph17.2 kmh 29.86 in1011.2 mb 0.00 in0.0 mm 0.00 in0.0 mm 0.00 in0.0 mm
05:40 PM 70.8°F21.6°C 48.6°F9.2°C 45% 5.3 mph NNE8.5 kmh NNE 9.2 mph14.8 kmh 29.86 in1011.2 mb 0.00 in0.0 mm 0.00 in0.0 mm 0.00 in0.0 mm
05:35 PM 71.0°F21.7°C 48.6°F9.2°C 45% 8.1 mph NNE13.0 kmh NNE 15.2 mph24.5 kmh 29.85 in1010.8 mb 0.00 in0.0 mm 0.00 in0.0 mm 0.00 in0.0 mm
05:30 PM 71.1°F21.7°C 48.8°F9.3°C 45% 8.5 mph NNW13.7 kmh NNW 15.2 mph24.5 kmh 29.86 in1011.2 mb 0.00 in0.0 mm 0.00 in0.0 mm 0.00 in0.0 mm
05:25 PM 71.1°F21.7°C 49.3°F9.6°C 46% 6.3 mph N10.1 kmh N 9.8 mph15.8 kmh 29.86 in1011.2 mb 0.00 in0.0 mm 0.00 in0.0 mm 0.00 in0.0 mm
05:20 PM 71.2°F21.8°C 49.1°F9.5°C 46% 4.3 mph NNE6.9 kmh NNE 6.9 mph11.1 kmh 29.85 in1010.8 mb 0.00 in0.0 mm 0.00 in0.0 mm 0.00 in0.0 mm
05:15 PM 71.3°F21.8°C 48.7°F9.3°C 45% 6.6 mph N10.6 kmh N 11.4 mph18.3 kmh 29.86 in1011.2 mb 0.00 in0.0 mm 0.00 in0.0 mm 0.00 in0.0 mm
05:10 PM 71.4°F21.9°C 48.9°F9.4°C 45% 6.5 mph N10.5 kmh N 10.7 mph17.2 kmh 29.85 in1010.8 mb 0.00 in0.0 mm 0.00 in0.0 mm 0.00 in0.0 mm
05:05 PM 71.8°F22.1°C 49.3°F9.6°C 45% 7.6 mph 12.2 kmh 9.2 mph14.8 kmh 29.85 in1010.8 mb 0.00 in0.0 mm 0.00 in0.0 mm 0.00 in0.0 mm
05:00 PM 71.9°F22.2°C 49.9°F9.9°C 46% 5.5 mph N8.9 kmh N 9.2 mph14.8 kmh 29.85 in1010.8 mb 0.00 in0.0 mm 0.00 in0.0 mm 0.00 in0.0 mm
04:55 PM 72.3°F22.4°C 50.1°F10.1°C 46% 6.5 mph N10.5 kmh N 9.8 mph15.8 kmh 29.85 in1010.8 mb 0.00 in0.0 mm 0.00 in0.0 mm 0.00 in0.0 mm
04:50 PM 72.6°F22.6°C 49.9°F9.9°C 45% 6.7 mph NNE10.8 kmh NNE 12.1 mph19.5 kmh 29.85 in1010.8 mb 0.00 in0.0 mm 0.00 in0.0 mm 0.00 in0.0 mm
04:45 PM 72.6°F22.6°C 49.4°F9.7°C 44% 6.1 mph N9.8 kmh N 11.4 mph18.3 kmh 29.85 in1010.8 mb 0.00 in0.0 mm 0.00 in0.0 mm 0.00 in0.0 mm
04:40 PM 72.9°F22.7°C 48.3°F9.1°C 42% 6.6 mph N10.6 kmh N 11.4 mph18.3 kmh 29.85 in1010.8 mb 0.00 in0.0 mm 0.00 in0.0 mm 0.00 in0.0 mm
04:35 PM 73.2°F22.9°C 47.6°F8.7°C 40% 5.8 mph NNW9.3 kmh NNW 9.8 mph15.8 kmh 29.85 in1010.8 mb 0.00 in0.0 mm 0.00 in0.0 mm 0.00 in0.0 mm
04:30 PM 73.7°F23.2°C 47.8°F8.8°C 40% 11.4 mph N18.3 kmh N 15.2 mph24.5 kmh 29.85 in1010.8 mb 0.00 in0.0 mm 0.00 in0.0 mm 0.00 in0.0 mm
04:25 PM 74.1°F23.4°C 48.2°F9.0°C 40% 6.9 mph N11.1 kmh N 15.9 mph25.6 kmh 29.84 in1010.5 mb 0.00 in0.0 mm 0.00 in0.0 mm 0.00 in0.0 mm
04:20 PM 74.2°F23.4°C 48.4°F9.1°C 40% 12.1 mph N19.5 kmh N 19.7 mph31.7 kmh 29.85 in1010.8 mb 0.00 in0.0 mm 0.00 in0.0 mm 0.00 in0.0 mm
04:15 PM 73.7°F23.2°C 48.4°F9.1°C 41% 12.3 mph 19.8 kmh 19.7 mph31.7 kmh 29.85 in1010.8 mb 0.00 in0.0 mm 0.00 in0.0 mm 0.00 in0.0 mm
04:10 PM 73.2°F22.9°C 47.9°F8.8°C 41% 12.5 mph N20.1 kmh N 17.4 mph28.0 kmh 29.85 in1010.8 mb 0.00 in0.0 mm 0.00 in0.0 mm 0.00 in0.0 mm
04:05 PM 73.6°F23.1°C 47.3°F8.5°C 39% 12.2 mph N19.6 kmh N 20.6 mph33.2 kmh 29.85 in1010.8 mb 0.00 in0.0 mm 0.00 in0.0 mm 0.00 in0.0 mm
04:00 PM 74.4°F23.6°C 48.5°F9.2°C 40% 10.4 mph NNE16.7 kmh NNE 15.2 mph24.5 kmh 29.85 in1010.8 mb 0.00 in0.0 mm 0.00 in0.0 mm 0.00 in0.0 mm
03:55 PM 74.9°F23.8°C 49.3°F9.6°C 41% 9.2 mph N14.8 kmh N 13.0 mph20.9 kmh 29.84 in1010.5 mb 0.00 in0.0 mm 0.00 in0.0 mm 0.00 in0.0 mm
03:50 PM 75.2°F24.0°C 49.5°F9.7°C 40% 8.7 mph NNE14.0 kmh NNE 13.6 mph21.9 kmh 29.84 in1010.5 mb 0.00 in0.0 mm 0.00 in0.0 mm 0.00 in0.0 mm
03:45 PM 75.7°F24.3°C 49.4°F9.7°C 40% 8.7 mph 14.0 kmh 11.4 mph18.3 kmh 29.84 in1010.5 mb 0.00 in0.0 mm 0.00 in0.0 mm 0.00 in0.0 mm
03:40 PM 75.8°F24.3°C 49.6°F9.8°C 40% 10.7 mph NNW17.2 kmh NNW 19.7 mph31.7 kmh 29.85 in1010.8 mb 0.00 in0.0 mm 0.00 in0.0 mm 0.00 in0.0 mm
03:35 PM 75.6°F24.2°C 48.9°F9.4°C 39% 8.6 mph N13.8 kmh N 11.4 mph18.3 kmh 29.84 in1010.5 mb 0.00 in0.0 mm 0.00 in0.0 mm 0.00 in0.0 mm
03:30 PM 75.6°F24.2°C 48.6°F9.2°C 39% 10.7 mph 17.2 kmh 18.3 mph29.5 kmh 29.84 in1010.5 mb 0.00 in0.0 mm 0.00 in0.0 mm 0.00 in0.0 mm
03:25 PM 75.9°F24.4°C 49.2°F9.6°C 39% 8.3 mph N13.4 kmh N 13.0 mph20.9 kmh 29.84 in1010.5 mb 0.00 in0.0 mm 0.00 in0.0 mm 0.00 in0.0 mm
03:20 PM 76.3°F24.6°C 50.5°F10.3°C 40% 7.4 mph NNW11.9 kmh NNW 18.3 mph29.5 kmh 29.84 in1010.5 mb 0.00 in0.0 mm 0.00 in0.0 mm 0.00 in0.0 mm
03:15 PM 75.9°F24.4°C 50.4°F10.2°C 41% 7.1 mph NW11.4 kmh NW 13.6 mph21.9 kmh 29.84 in1010.5 mb 0.00 in0.0 mm 0.00 in0.0 mm 0.00 in0.0 mm
03:10 PM 75.4°F24.1°C 50.0°F10.0°C 41% 6.4 mph N10.3 kmh N 11.4 mph18.3 kmh 29.85 in1010.8 mb 0.00 in0.0 mm 0.00 in0.0 mm 0.00 in0.0 mm
03:05 PM 75.6°F24.2°C 49.5°F9.7°C 40% 9.2 mph NW14.8 kmh NW 11.4 mph18.3 kmh 29.85 in1010.8 mb 0.00 in0.0 mm 0.00 in0.0 mm 0.00 in0.0 mm
03:00 PM 75.2°F24.0°C 50.2°F10.1°C 42% 7.0 mph N11.3 kmh N 11.4 mph18.3 kmh 29.85 in1010.8 mb 0.00 in0.0 mm 0.00 in0.0 mm 0.00 in0.0 mm
02:55 PM 74.1°F23.4°C 49.5°F9.7°C 42% 10.3 mph N16.6 kmh N 13.6 mph21.9 kmh 29.85 in1010.8 mb 0.00 in0.0 mm 0.00 in0.0 mm 0.00 in0.0 mm
02:50 PM 74.5°F23.6°C 49.5°F9.7°C 41% 8.9 mph N14.3 kmh N 15.9 mph25.6 kmh 29.85 in1010.8 mb 0.00 in0.0 mm 0.00 in0.0 mm 0.00 in0.0 mm
02:45 PM 75.0°F23.9°C 50.3°F10.2°C 42% 9.6 mph NNW15.4 kmh NNW 14.5 mph23.3 kmh 29.85 in1010.8 mb 0.00 in0.0 mm 0.00 in0.0 mm 0.00 in0.0 mm
02:40 PM 74.3°F23.5°C 50.4°F10.2°C 43% 11.6 mph NNW18.7 kmh NNW 15.9 mph25.6 kmh 29.85 in1010.8 mb 0.00 in0.0 mm 0.00 in0.0 mm 0.00 in0.0 mm
02:35 PM 73.7°F23.2°C 49.3°F9.6°C 42% 8.5 mph N13.7 kmh N 13.6 mph21.9 kmh 29.85 in1010.8 mb 0.00 in0.0 mm 0.00 in0.0 mm 0.00 in0.0 mm
02:30 PM 74.2°F23.4°C 50.0°F10.0°C 43% 6.3 mph N10.1 kmh N 11.4 mph18.3 kmh 29.85 in1010.8 mb 0.00 in0.0 mm 0.00 in0.0 mm 0.00 in0.0 mm
02:25 PM 74.8°F23.8°C 50.1°F10.1°C 42% 8.9 mph N14.3 kmh N 14.5 mph23.3 kmh 29.85 in1010.8 mb 0.00 in0.0 mm 0.00 in0.0 mm 0.00 in0.0 mm
02:20 PM 75.5°F24.2°C 50.9°F10.5°C 42% 13.2 mph N21.2 kmh N 18.3 mph29.5 kmh 29.85 in1010.8 mb 0.00 in0.0 mm 0.00 in0.0 mm 0.00 in0.0 mm
02:15 PM 75.5°F24.2°C 51.2°F10.7°C 43% 7.3 mph NW11.7 kmh NW 10.7 mph17.2 kmh 29.85 in1010.8 mb 0.00 in0.0 mm 0.00 in0.0 mm 0.00 in0.0 mm
02:10 PM 74.5°F23.6°C 51.2°F10.7°C 44% 9.5 mph NNW15.3 kmh NNW 13.6 mph21.9 kmh 29.85 in1010.8 mb 0.00 in0.0 mm 0.00 in0.0 mm 0.00 in0.0 mm
02:05 PM 73.6°F23.1°C 52.7°F11.5°C 48% 11.4 mph NW18.3 kmh NW 13.0 mph20.9 kmh 29.85 in1010.8 mb 0.00 in0.0 mm 0.00 in0.0 mm 0.00 in0.0 mm
02:00 PM 73.2°F22.9°C 51.5°F10.8°C 47% 6.9 mph N11.1 kmh N 15.2 mph24.5 kmh 29.85 in1010.8 mb 0.00 in0.0 mm 0.00 in0.0 mm 0.00 in0.0 mm
01:55 PM 73.3°F22.9°C 51.1°F10.6°C 46% 6.0 mph N9.7 kmh N 10.7 mph17.2 kmh 29.85 in1010.8 mb 0.00 in0.0 mm 0.00 in0.0 mm 0.00 in0.0 mm
01:50 PM 74.0°F23.3°C 51.2°F10.7°C 45% 3.6 mph N5.8 kmh N 6.9 mph11.1 kmh 29.85 in1010.8 mb 0.00 in0.0 mm 0.00 in0.0 mm 0.00 in0.0 mm
01:45 PM 75.2°F24.0°C 50.7°F10.4°C 42% 4.0 mph N6.4 kmh N 9.8 mph15.8 kmh 29.85 in1010.8 mb 0.00 in0.0 mm 0.00 in0.0 mm 0.00 in0.0 mm
01:40 PM 75.8°F24.3°C 52.7°F11.5°C 45% 5.9 mph N9.5 kmh N 9.8 mph15.8 kmh 29.85 in1010.8 mb 0.00 in0.0 mm 0.00 in0.0 mm 0.00 in0.0 mm
01:35 PM 75.0°F23.9°C 53.5°F11.9°C 47% 5.4 mph NE8.7 kmh NE 8.3 mph13.4 kmh 29.85 in1010.8 mb 0.00 in0.0 mm 0.00 in0.0 mm 0.00 in0.0 mm
01:30 PM 73.4°F23.0°C 52.3°F11.3°C 48% 7.3 mph N11.7 kmh N 10.7 mph17.2 kmh 29.85 in1010.8 mb 0.00 in0.0 mm 0.00 in0.0 mm 0.00 in0.0 mm
01:25 PM 72.8°F22.7°C 52.1°F11.2°C 48% 3.5 mph NNW5.6 kmh NNW 7.6 mph12.2 kmh 29.85 in1010.8 mb 0.00 in0.0 mm 0.00 in0.0 mm 0.00 in0.0 mm
01:20 PM 73.2°F22.9°C 49.7°F9.8°C 44% 6.3 mph N10.1 kmh N 9.8 mph15.8 kmh 29.86 in1011.2 mb 0.00 in0.0 mm 0.00 in0.0 mm 0.00 in0.0 mm
01:15 PM 74.0°F23.3°C 50.2°F10.1°C 43% 5.4 mph N8.7 kmh N 11.4 mph18.3 kmh 29.86 in1011.2 mb 0.00 in0.0 mm 0.00 in0.0 mm 0.00 in0.0 mm
01:10 PM 73.8°F23.2°C 50.4°F10.2°C 44% 6.5 mph N10.5 kmh N 9.8 mph15.8 kmh 29.86 in1011.2 mb 0.00 in0.0 mm 0.00 in0.0 mm 0.00 in0.0 mm
01:05 PM 74.4°F23.6°C 49.4°F9.7°C 41% 8.2 mph NNW13.2 kmh NNW 11.4 mph18.3 kmh 29.85 in1010.8 mb 0.00 in0.0 mm 0.00 in0.0 mm 0.00 in0.0 mm
01:00 PM 75.4°F24.1°C 50.0°F10.0°C 41% 6.9 mph NW11.1 kmh NW 11.4 mph18.3 kmh 29.85 in1010.8 mb 0.00 in0.0 mm 0.00 in0.0 mm 0.00 in0.0 mm
12:55 PM 76.1°F24.5°C 51.8°F11.0°C 43% 7.6 mph NW12.2 kmh NW 13.0 mph20.9 kmh 29.85 in1010.8 mb 0.00 in0.0 mm 0.00 in0.0 mm 0.00 in0.0 mm
12:50 PM 74.2°F23.4°C 52.8°F11.6°C 47% 5.4 mph N8.7 kmh N 12.1 mph19.5 kmh 29.85 in1010.8 mb 0.00 in0.0 mm 0.00 in0.0 mm 0.00 in0.0 mm
12:45 PM 72.3°F22.4°C 52.5°F11.4°C 50% 5.4 mph N8.7 kmh N 9.2 mph14.8 kmh 29.85 in1010.8 mb 0.00 in0.0 mm 0.00 in0.0 mm 0.00 in0.0 mm
12:40 PM 72.5°F22.5°C 52.5°F11.4°C 49% 5.9 mph N9.5 kmh N 9.8 mph15.8 kmh 29.85 in1010.8 mb 0.00 in0.0 mm 0.00 in0.0 mm 0.00 in0.0 mm
12:35 PM 73.0°F22.8°C 49.7°F9.8°C 44% 3.4 mph N5.5 kmh N 6.9 mph11.1 kmh 29.85 in1010.8 mb 0.00 in0.0 mm 0.00 in0.0 mm 0.00 in0.0 mm
12:30 PM 74.0°F23.3°C 50.2°F10.1°C 43% 5.4 mph WNW8.7 kmh WNW 8.3 mph13.4 kmh 29.85 in1010.8 mb 0.00 in0.0 mm 0.00 in0.0 mm 0.00 in0.0 mm
12:25 PM 73.4°F23.0°C 52.3°F11.3°C 48% 4.1 mph N6.6 kmh N 6.9 mph11.1 kmh 29.85 in1010.8 mb 0.00 in0.0 mm 0.00 in0.0 mm 0.00 in0.0 mm
12:20 PM 72.8°F22.7°C 50.6°F10.3°C 46% 7.3 mph NNW11.7 kmh NNW 11.4 mph18.3 kmh 29.85 in1010.8 mb 0.00 in0.0 mm 0.00 in0.0 mm 0.00 in0.0 mm
12:15 PM 73.5°F23.1°C 50.7°F10.4°C 45% 7.9 mph NW12.7 kmh NW 14.5 mph23.3 kmh 29.85 in1010.8 mb 0.00 in0.0 mm 0.00 in0.0 mm 0.00 in0.0 mm
12:10 PM 73.2°F22.9°C 50.5°F10.3°C 45% 8.4 mph NNW13.5 kmh NNW 13.6 mph21.9 kmh 29.86 in1011.2 mb 0.00 in0.0 mm 0.00 in0.0 mm 0.00 in0.0 mm
12:05 PM 73.6°F23.1°C 50.3°F10.2°C 44% 3.8 mph NW6.1 kmh NW 5.4 mph8.7 kmh 29.86 in1011.2 mb 0.00 in0.0 mm 0.00 in0.0 mm 0.00 in0.0 mm
12:00 PM 73.3°F22.9°C 51.9°F11.1°C 47% 4.8 mph NNW7.7 kmh NNW 8.3 mph13.4 kmh 29.86 in1011.2 mb 0.00 in0.0 mm 0.00 in0.0 mm 0.00 in0.0 mm
11:55 AM 72.6°F22.6°C 52.4°F11.3°C 49% 9.7 mph NNW15.6 kmh NNW 12.1 mph19.5 kmh 29.86 in1011.2 mb 0.00 in0.0 mm 0.00 in0.0 mm 0.00 in0.0 mm
11:50 AM 71.7°F22.1°C 51.4°F10.8°C 49% 4.3 mph W6.9 kmh W 9.8 mph15.8 kmh 29.86 in1011.2 mb 0.00 in0.0 mm 0.00 in0.0 mm 0.00 in0.0 mm
11:45 AM 71.8°F22.1°C 52.4°F11.3°C 50% 5.9 mph NW9.5 kmh NW 9.8 mph15.8 kmh 29.86 in1011.2 mb 0.00 in0.0 mm 0.00 in0.0 mm 0.00 in0.0 mm
11:40 AM 72.0°F22.2°C 52.4°F11.3°C 50% 7.4 mph N11.9 kmh N 12.1 mph19.5 kmh 29.86 in1011.2 mb 0.00 in0.0 mm 0.00 in0.0 mm 0.00 in0.0 mm
11:35 AM 72.4°F22.4°C 52.8°F11.6°C 50% 5.4 mph N8.7 kmh N 10.7 mph17.2 kmh 29.86 in1011.2 mb 0.00 in0.0 mm 0.00 in0.0 mm 0.00 in0.0 mm
11:30 AM 72.6°F22.6°C 53.1°F11.7°C 50% 5.9 mph NNW9.5 kmh NNW 9.2 mph14.8 kmh 29.86 in1011.2 mb 0.00 in0.0 mm 0.00 in0.0 mm 0.00 in0.0 mm
11:25 AM 72.3°F22.4°C 54.1°F12.3°C 53% 5.2 mph N8.4 kmh N 9.8 mph15.8 kmh 29.85 in1010.8 mb 0.00 in0.0 mm 0.00 in0.0 mm 0.00 in0.0 mm
11:20 AM 70.4°F21.3°C 52.6°F11.4°C 53% 5.4 mph NW8.7 kmh NW 10.7 mph17.2 kmh 29.86 in1011.2 mb 0.00 in0.0 mm 0.00 in0.0 mm 0.00 in0.0 mm
11:15 AM 69.9°F21.1°C 51.7°F10.9°C 53% 5.0 mph WNW8.0 kmh WNW 6.9 mph11.1 kmh 29.86 in1011.2 mb 0.00 in0.0 mm 0.00 in0.0 mm 0.00 in0.0 mm
11:10 AM 69.8°F21.0°C 51.3°F10.7°C 52% 3.9 mph WNW6.3 kmh WNW 9.2 mph14.8 kmh 29.86 in1011.2 mb 0.00 in0.0 mm 0.00 in0.0 mm 0.00 in0.0 mm
11:05 AM 70.2°F21.2°C 50.6°F10.3°C 50% 3.8 mph W6.1 kmh W 4.5 mph7.2 kmh 29.86 in1011.2 mb 0.00 in0.0 mm 0.00 in0.0 mm 0.00 in0.0 mm
11:00 AM 70.5°F21.4°C 51.2°F10.7°C 51% 4.7 mph NNW7.6 kmh NNW 6.9 mph11.1 kmh 29.86 in1011.2 mb 0.00 in0.0 mm 0.00 in0.0 mm 0.00 in0.0 mm
10:55 AM 71.1°F21.7°C 51.5°F10.8°C 50% 5.1 mph 8.2 kmh 8.3 mph13.4 kmh 29.86 in1011.2 mb 0.00 in0.0 mm 0.00 in0.0 mm 0.00 in0.0 mm
10:50 AM 70.7°F21.5°C 53.1°F11.7°C 54% 4.2 mph NNE6.8 kmh NNE 6.0 mph9.7 kmh 29.86 in1011.2 mb 0.00 in0.0 mm 0.00 in0.0 mm 0.00 in0.0 mm
10:45 AM 69.7°F20.9°C 53.2°F11.8°C 56% 3.1 mph N5.0 kmh N 7.6 mph12.2 kmh 29.86 in1011.2 mb 0.00 in0.0 mm 0.00 in0.0 mm 0.00 in0.0 mm
10:40 AM 68.2°F20.1°C 52.0°F11.1°C 56% 3.2 mph NNW5.1 kmh NNW 4.5 mph7.2 kmh 29.86 in1011.2 mb 0.00 in0.0 mm 0.00 in0.0 mm 0.00 in0.0 mm
10:35 AM 68.0°F20.0°C 51.1°F10.6°C 55% 5.0 mph N8.0 kmh N 7.6 mph12.2 kmh 29.86 in1011.2 mb 0.00 in0.0 mm 0.00 in0.0 mm 0.00 in0.0 mm
10:30 AM 68.2°F20.1°C 51.2°F10.7°C 55% 4.3 mph WNW6.9 kmh WNW 8.3 mph13.4 kmh 29.87 in1011.5 mb 0.00 in0.0 mm 0.00 in0.0 mm 0.00 in0.0 mm
10:25 AM 68.3°F20.2°C 50.7°F10.4°C 54% 3.5 mph NW5.6 kmh NW 6.9 mph11.1 kmh 29.86 in1011.2 mb 0.00 in0.0 mm 0.00 in0.0 mm 0.00 in0.0 mm
10:20 AM 68.6°F20.3°C 50.4°F10.2°C 52% 4.7 mph NW7.6 kmh NW 6.9 mph11.1 kmh 29.87 in1011.5 mb 0.00 in0.0 mm 0.00 in0.0 mm 0.00 in0.0 mm
10:15 AM 69.1°F20.6°C 50.5°F10.3°C 52% 3.1 mph WSW5.0 kmh WSW 8.3 mph13.4 kmh 29.86 in1011.2 mb 0.00 in0.0 mm 0.00 in0.0 mm 0.00 in0.0 mm
10:10 AM 69.9°F21.1°C 51.7°F10.9°C 52% 2.8 mph NW4.5 kmh NW 6.0 mph9.7 kmh 29.86 in1011.2 mb 0.00 in0.0 mm 0.00 in0.0 mm 0.00 in0.0 mm
10:05 AM 70.5°F21.4°C 52.6°F11.4°C 53% 4.5 mph NW7.2 kmh NW 6.0 mph9.7 kmh 29.86 in1011.2 mb 0.00 in0.0 mm 0.00 in0.0 mm 0.00 in0.0 mm
10:00 AM 70.6°F21.4°C 52.6°F11.4°C 53% 4.8 mph NW7.7 kmh NW 8.3 mph13.4 kmh 29.86 in1011.2 mb 0.00 in0.0 mm 0.00 in0.0 mm 0.00 in0.0 mm
09:55 AM 69.5°F20.8°C 52.3°F11.3°C 54% 1.6 mph NW2.6 kmh NW 6.0 mph9.7 kmh 29.86 in1011.2 mb 0.00 in0.0 mm 0.00 in0.0 mm 0.00 in0.0 mm
09:50 AM 68.8°F20.4°C 51.0°F10.6°C 53% 3.6 mph N5.8 kmh N 7.6 mph12.2 kmh 29.86 in1011.2 mb 0.00 in0.0 mm 0.00 in0.0 mm 0.00 in0.0 mm
09:45 AM 70.0°F21.1°C 51.5°F10.8°C 52% 6.1 mph N9.8 kmh N 9.8 mph15.8 kmh 29.87 in1011.5 mb 0.00 in0.0 mm 0.00 in0.0 mm 0.00 in0.0 mm
09:40 AM 71.2°F21.8°C 52.1°F11.2°C 51% 4.7 mph NW7.6 kmh NW 9.8 mph15.8 kmh 29.86 in1011.2 mb 0.00 in0.0 mm 0.00 in0.0 mm 0.00 in0.0 mm
09:35 AM 72.3°F22.4°C 53.5°F11.9°C 52% 4.6 mph NW7.4 kmh NW 6.9 mph11.1 kmh 29.86 in1011.2 mb 0.00 in0.0 mm 0.00 in0.0 mm 0.00 in0.0 mm
09:30 AM 71.3°F21.8°C 53.9°F12.2°C 54% 5.6 mph NW9.0 kmh NW 9.2 mph14.8 kmh 29.86 in1011.2 mb 0.00 in0.0 mm 0.00 in0.0 mm 0.00 in0.0 mm
09:25 AM 70.4°F21.3°C 52.6°F11.4°C 53% 4.4 mph N7.1 kmh N 7.6 mph12.2 kmh 29.86 in1011.2 mb 0.00 in0.0 mm 0.00 in0.0 mm 0.00 in0.0 mm
09:20 AM 70.6°F21.4°C 53.0°F11.7°C 54% 6.1 mph NNE9.8 kmh NNE 9.2 mph14.8 kmh 29.86 in1011.2 mb 0.00 in0.0 mm 0.00 in0.0 mm 0.00 in0.0 mm
09:15 AM 70.4°F21.3°C 53.3°F11.8°C 55% 6.7 mph N10.8 kmh N 11.4 mph18.3 kmh 29.86 in1011.2 mb 0.00 in0.0 mm 0.00 in0.0 mm 0.00 in0.0 mm
09:10 AM 69.8°F21.0°C 52.4°F11.3°C 54% 7.6 mph NNW12.2 kmh NNW 11.4 mph18.3 kmh 29.87 in1011.5 mb 0.00 in0.0 mm 0.00 in0.0 mm 0.00 in0.0 mm
09:05 AM 69.4°F20.8°C 53.0°F11.7°C 56% 2.2 mph NE3.5 kmh NE 3.1 mph5.0 kmh 29.87 in1011.5 mb 0.00 in0.0 mm 0.00 in0.0 mm 0.00 in0.0 mm
09:00 AM 69.6°F20.9°C 52.0°F11.1°C 54% 4.4 mph N7.1 kmh N 8.3 mph13.4 kmh 29.87 in1011.5 mb 0.00 in0.0 mm 0.00 in0.0 mm 0.00 in0.0 mm
08:55 AM 70.2°F21.2°C 53.0°F11.7°C 54% 7.1 mph NNE11.4 kmh NNE 10.7 mph17.2 kmh 29.87 in1011.5 mb 0.00 in0.0 mm 0.00 in0.0 mm 0.00 in0.0 mm
08:50 AM 69.4°F20.8°C 53.3°F11.8°C 57% 6.1 mph NNW9.8 kmh NNW 9.8 mph15.8 kmh 29.87 in1011.5 mb 0.00 in0.0 mm 0.00 in0.0 mm 0.00 in0.0 mm
08:45 AM 69.1°F20.6°C 51.8°F11.0°C 54% 5.0 mph N8.0 kmh N 8.3 mph13.4 kmh 29.87 in1011.5 mb 0.00 in0.0 mm 0.00 in0.0 mm 0.00 in0.0 mm
08:40 AM 69.7°F20.9°C 52.7°F11.5°C 55% 5.0 mph N8.0 kmh N 7.6 mph12.2 kmh 29.87 in1011.5 mb 0.00 in0.0 mm 0.00 in0.0 mm 0.00 in0.0 mm
08:35 AM 70.3°F21.3°C 52.7°F11.5°C 54% 5.4 mph 8.7 kmh 9.2 mph14.8 kmh 29.87 in1011.5 mb 0.00 in0.0 mm 0.00 in0.0 mm 0.00 in0.0 mm
08:30 AM 70.4°F21.3°C 53.9°F12.2°C 56% 5.9 mph N9.5 kmh N 10.7 mph17.2 kmh 29.87 in1011.5 mb 0.00 in0.0 mm 0.00 in0.0 mm 0.00 in0.0 mm
08:25 AM 70.1°F21.2°C 53.1°F11.7°C 55% 6.3 mph N10.1 kmh N 9.2 mph14.8 kmh 29.86 in1011.2 mb 0.00 in0.0 mm 0.00 in0.0 mm 0.00 in0.0 mm
08:20 AM 70.0°F21.1°C 53.9°F12.2°C 57% 6.6 mph NNE10.6 kmh NNE 9.2 mph14.8 kmh 29.86 in1011.2 mb 0.00 in0.0 mm 0.00 in0.0 mm 0.00 in0.0 mm
08:15 AM 69.8°F21.0°C 54.1°F12.3°C 58% 7.0 mph NW11.3 kmh NW 10.7 mph17.2 kmh 29.86 in1011.2 mb 0.00 in0.0 mm 0.00 in0.0 mm 0.00 in0.0 mm
08:10 AM 69.0°F20.6°C 54.5°F12.5°C 60% 7.0 mph N11.3 kmh N 11.4 mph18.3 kmh 29.87 in1011.5 mb 0.00 in0.0 mm 0.00 in0.0 mm 0.00 in0.0 mm
08:05 AM 68.0°F20.0°C 53.6°F12.0°C 60% 5.4 mph 8.7 kmh 6.0 mph9.7 kmh 29.86 in1011.2 mb 0.00 in0.0 mm 0.00 in0.0 mm 0.00 in0.0 mm
08:00 AM 67.7°F19.8°C 53.3°F11.8°C 60% 3.5 mph NNW5.6 kmh NNW 6.0 mph9.7 kmh 29.87 in1011.5 mb 0.00 in0.0 mm 0.00 in0.0 mm 0.00 in0.0 mm
07:55 AM 67.2°F19.6°C 53.5°F11.9°C 61% 2.8 mph NW4.5 kmh NW 4.5 mph7.2 kmh 29.87 in1011.5 mb 0.00 in0.0 mm 0.00 in0.0 mm 0.00 in0.0 mm
07:50 AM 66.6°F19.2°C 52.7°F11.5°C 61% 3.6 mph NNW5.8 kmh NNW 7.6 mph12.2 kmh 29.87 in1011.5 mb 0.00 in0.0 mm 0.00 in0.0 mm 0.00 in0.0 mm
07:45 AM 66.3°F19.1°C 52.8°F11.6°C 62% 3.4 mph N5.5 kmh N 6.0 mph9.7 kmh 29.87 in1011.5 mb 0.00 in0.0 mm 0.00 in0.0 mm 0.00 in0.0 mm
07:40 AM 65.3°F18.5°C 53.0°F11.7°C 64% 3.6 mph N5.8 kmh N 5.4 mph8.7 kmh 29.88 in1011.9 mb 0.00 in0.0 mm 0.00 in0.0 mm 0.00 in0.0 mm
07:35 AM 64.1°F17.8°C 52.4°F11.3°C 66% 4.2 mph NNW6.8 kmh NNW 6.0 mph9.7 kmh 29.88 in1011.9 mb 0.00 in0.0 mm 0.00 in0.0 mm 0.00 in0.0 mm
07:30 AM 63.1°F17.3°C 52.7°F11.5°C 69% 1.6 mph ENE2.6 kmh ENE 4.5 mph7.2 kmh 29.88 in1011.9 mb 0.00 in0.0 mm 0.00 in0.0 mm 0.00 in0.0 mm
07:25 AM 62.3°F16.8°C 52.2°F11.2°C 69% 1.4 mph SW2.3 kmh SW 3.1 mph5.0 kmh 29.88 in1011.9 mb 0.00 in0.0 mm 0.00 in0.0 mm 0.00 in0.0 mm
07:20 AM 62.1°F16.7°C 52.0°F11.1°C 70% 2.0 mph S3.2 kmh S 3.8 mph6.1 kmh 29.88 in1011.9 mb 0.00 in0.0 mm 0.00 in0.0 mm 0.00 in0.0 mm
07:15 AM 62.0°F16.7°C 52.5°F11.4°C 71% 1.6 mph S2.6 kmh S 3.1 mph5.0 kmh 29.88 in1011.9 mb 0.00 in0.0 mm 0.00 in0.0 mm 0.00 in0.0 mm
07:10 AM 61.3°F16.3°C 52.5°F11.4°C 73% 1.0 mph W1.6 kmh W 2.2 mph3.5 kmh 29.88 in1011.9 mb 0.00 in0.0 mm 0.00 in0.0 mm 0.00 in0.0 mm
07:05 AM 59.7°F15.4°C 51.0°F10.6°C 73% 1.6 mph SW2.6 kmh SW 2.2 mph3.5 kmh 29.89 in1012.2 mb 0.00 in0.0 mm 0.00 in0.0 mm 0.00 in0.0 mm
07:00 AM 59.5°F15.3°C 51.0°F10.6°C 74% 1.7 mph S2.7 kmh S 3.1 mph5.0 kmh 29.89 in1012.2 mb 0.00 in0.0 mm 0.00 in0.0 mm 0.00 in0.0 mm
06:55 AM 59.0°F15.0°C 50.4°F10.2°C 73% 2.0 mph S3.2 kmh S 3.8 mph6.1 kmh 29.89 in1012.2 mb 0.00 in0.0 mm 0.00 in0.0 mm 0.00 in0.0 mm
06:50 AM 58.8°F14.9°C 50.3°F10.2°C 73% 2.5 mph S4.0 kmh S 3.1 mph5.0 kmh 29.89 in1012.2 mb 0.00 in0.0 mm 0.00 in0.0 mm 0.00 in0.0 mm
06:45 AM 58.6°F14.8°C 50.3°F10.2°C 74% 1.9 mph S3.1 kmh S 4.5 mph7.2 kmh 29.89 in1012.2 mb 0.00 in0.0 mm 0.00 in0.0 mm 0.00 in0.0 mm
06:40 AM 58.1°F14.5°C 49.8°F9.9°C 74% 0.7 mph SSW1.1 kmh SSW 1.6 mph2.6 kmh 29.89 in1012.2 mb 0.00 in0.0 mm 0.00 in0.0 mm 0.00 in0.0 mm
06:35 AM 57.5°F14.2°C 49.9°F9.9°C 76% 0.5 mph S0.8 kmh S 1.6 mph2.6 kmh 29.89 in1012.2 mb 0.00 in0.0 mm 0.00 in0.0 mm 0.00 in0.0 mm
06:30 AM 56.8°F13.8°C 49.8°F9.9°C 78% 0.8 mph SE1.3 kmh SE 2.2 mph3.5 kmh 29.90 in1012.5 mb 0.00 in0.0 mm 0.00 in0.0 mm 0.00 in0.0 mm
06:25 AM 56.2°F13.4°C 50.0°F10.0°C 80% 0.5 mph SSE0.8 kmh SSE 1.6 mph2.6 kmh 29.90 in1012.5 mb 0.00 in0.0 mm 0.00 in0.0 mm 0.00 in0.0 mm
06:20 AM 55.8°F13.2°C 49.9°F9.9°C 80% 0.9 mph S1.4 kmh S 2.2 mph3.5 kmh 29.90 in1012.5 mb 0.00 in0.0 mm 0.00 in0.0 mm 0.00 in0.0 mm
06:15 AM 55.6°F13.1°C 50.1°F10.1°C 82% 1.4 mph SSW2.3 kmh SSW 3.1 mph5.0 kmh 29.90 in1012.5 mb 0.00 in0.0 mm 0.00 in0.0 mm 0.00 in0.0 mm
06:10 AM 55.4°F13.0°C 51.1°F10.6°C 85% 0.8 mph S1.3 kmh S 2.2 mph3.5 kmh 29.90 in1012.5 mb 0.00 in0.0 mm 0.00 in0.0 mm 0.00 in0.0 mm
06:05 AM 55.0°F12.8°C 52.1°F11.2°C 90% 0.5 mph NW0.8 kmh NW 1.6 mph2.6 kmh 29.90 in1012.5 mb 0.00 in0.0 mm 0.00 in0.0 mm 0.00 in0.0 mm
06:00 AM 54.4°F12.4°C 52.6°F11.4°C 94% 0.5 mph NW0.8 kmh NW 1.6 mph2.6 kmh 29.90 in1012.5 mb 0.00 in0.0 mm 0.00 in0.0 mm 0.00 in0.0 mm
05:55 AM 53.7°F12.1°C 52.0°F11.1°C 94% 1.3 mph NE2.1 kmh NE 2.2 mph3.5 kmh 29.91 in1012.9 mb 0.00 in0.0 mm 0.00 in0.0 mm 0.00 in0.0 mm
05:50 AM 52.7°F11.5°C 51.1°F10.6°C 94% 0.7 mph ENE1.1 kmh ENE 2.2 mph3.5 kmh 29.91 in1012.9 mb 0.00 in0.0 mm 0.00 in0.0 mm 0.00 in0.0 mm
05:45 AM 51.8°F11.0°C 50.2°F10.1°C 94% 0.3 mph ENE0.5 kmh ENE 1.6 mph2.6 kmh 29.91 in1012.9 mb 0.00 in0.0 mm 0.00 in0.0 mm 0.00 in0.0 mm
05:40 AM 51.1°F10.6°C 49.3°F9.6°C 93% Calm Calm 0.7 mph1.1 kmh 29.91 in1012.9 mb 0.00 in0.0 mm 0.00 in0.0 mm 0.00 in0.0 mm
05:35 AM 50.5°F10.3°C 48.6°F9.2°C 93% 0.1 mph SW0.2 kmh SW 1.6 mph2.6 kmh 29.92 in1013.2 mb 0.00 in0.0 mm 0.00 in0.0 mm 0.00 in0.0 mm
05:30 AM 50.0°F10.0°C 47.9°F8.8°C 92% Calm Calm 0.7 mph1.1 kmh 29.91 in1012.9 mb 0.00 in0.0 mm 0.00 in0.0 mm 0.00 in0.0 mm
05:25 AM 49.4°F9.7°C 47.2°F8.4°C 92% Calm Calm 0.7 mph1.1 kmh 29.92 in1013.2 mb 0.00 in0.0 mm 0.00 in0.0 mm 0.00 in0.0 mm
05:20 AM 48.9°F9.4°C 46.4°F8.0°C 91% Calm Calm 0.7 mph1.1 kmh 29.92 in1013.2 mb 0.00 in0.0 mm 0.00 in0.0 mm 0.00 in0.0 mm
05:15 AM 48.4°F9.1°C 45.7°F7.6°C 91% 0.1 mph NE0.2 kmh NE 0.7 mph1.1 kmh 29.92 in1013.2 mb 0.00 in0.0 mm 0.00 in0.0 mm 0.00 in0.0 mm
05:10 AM 47.6°F8.7°C 44.6°F7.0°C 89% 0.2 mph S0.3 kmh S 1.6 mph2.6 kmh 29.92 in1013.2 mb 0.00 in0.0 mm 0.00 in0.0 mm 0.00 in0.0 mm
05:05 AM 46.9°F8.3°C 43.6°F6.4°C 88% Calm Calm -- 29.92 in1013.2 mb 0.00 in0.0 mm 0.00 in0.0 mm 0.00 in0.0 mm
05:00 AM 46.8°F8.2°C 43.5°F6.4°C 88% Calm Calm -- 29.92 in1013.2 mb 0.00 in0.0 mm 0.00 in0.0 mm 0.00 in0.0 mm
04:55 AM 46.6°F8.1°C 43.1°F6.2°C 88% Calm Calm -- 29.92 in1013.2 mb 0.00 in0.0 mm 0.00 in0.0 mm 0.00 in0.0 mm
04:50 AM 46.6°F8.1°C 42.9°F6.1°C 87% Calm Calm 0.7 mph1.1 kmh 29.92 in1013.2 mb 0.00 in0.0 mm 0.00 in0.0 mm 0.00 in0.0 mm
04:45 AM 46.5°F8.1°C 42.8°F6.0°C 87% 0.4 mph NNE0.6 kmh NNE 1.6 mph2.6 kmh 29.92 in1013.2 mb 0.00 in0.0 mm 0.00 in0.0 mm 0.00 in0.0 mm
04:40 AM 46.4°F8.0°C 42.7°F5.9°C 87% 1.3 mph N2.1 kmh N 2.2 mph3.5 kmh 29.91 in1012.9 mb 0.00 in0.0 mm 0.00 in0.0 mm 0.00 in0.0 mm
04:35 AM 46.5°F8.1°C 42.8°F6.0°C 87% 0.1 mph 0.2 kmh 1.6 mph2.6 kmh 29.91 in1012.9 mb 0.00 in0.0 mm 0.00 in0.0 mm 0.00 in0.0 mm
04:30 AM 46.6°F8.1°C 42.9°F6.1°C 87% 0.8 mph NNE1.3 kmh NNE 2.2 mph3.5 kmh 29.91 in1012.9 mb 0.00 in0.0 mm 0.00 in0.0 mm 0.00 in0.0 mm
04:25 AM 46.7°F8.2°C 42.9°F6.1°C 86% 0.7 mph NE1.1 kmh NE 2.2 mph3.5 kmh 29.91 in1012.9 mb 0.00 in0.0 mm 0.00 in0.0 mm 0.00 in0.0 mm
04:20 AM 46.8°F8.2°C 42.8°F6.0°C 86% 1.1 mph NE1.8 kmh NE 2.2 mph3.5 kmh 29.91 in1012.9 mb 0.00 in0.0 mm 0.00 in0.0 mm 0.00 in0.0 mm
04:15 AM 46.8°F8.2°C 42.8°F6.0°C 86% 1.8 mph N2.9 kmh N 3.1 mph5.0 kmh 29.91 in1012.9 mb 0.00 in0.0 mm 0.00 in0.0 mm 0.00 in0.0 mm
04:10 AM 46.8°F8.2°C 42.8°F6.0°C 86% 1.6 mph N2.6 kmh N 2.2 mph3.5 kmh 29.91 in1012.9 mb 0.00 in0.0 mm 0.00 in0.0 mm 0.00 in0.0 mm
04:05 AM 46.8°F8.2°C 42.8°F6.0°C 86% 1.6 mph N2.6 kmh N 3.1 mph5.0 kmh 29.91 in1012.9 mb 0.00 in0.0 mm 0.00 in0.0 mm 0.00 in0.0 mm
04:00 AM 46.8°F8.2°C 42.5°F5.8°C 85% 0.6 mph 1.0 kmh 1.6 mph2.6 kmh 29.91 in1012.9 mb 0.00 in0.0 mm 0.00 in0.0 mm 0.00 in0.0 mm
03:55 AM 46.9°F8.3°C 42.6°F5.9°C 85% Calm Calm 0.7 mph1.1 kmh 29.91 in1012.9 mb 0.00 in0.0 mm 0.00 in0.0 mm 0.00 in0.0 mm
03:50 AM 46.9°F8.3°C 42.7°F5.9°C 85% Calm Calm 0.7 mph1.1 kmh 29.91 in1012.9 mb 0.00 in0.0 mm 0.00 in0.0 mm 0.00 in0.0 mm
03:45 AM 46.9°F8.3°C 42.5°F5.8°C 85% 1.3 mph NE2.1 kmh NE 2.2 mph3.5 kmh 29.92 in1013.2 mb 0.00 in0.0 mm 0.00 in0.0 mm 0.00 in0.0 mm
03:40 AM 46.9°F8.3°C 42.4°F5.8°C 84% 1.6 mph NE2.6 kmh NE 2.2 mph3.5 kmh 29.91 in1012.9 mb 0.00 in0.0 mm 0.00 in0.0 mm 0.00 in0.0 mm
03:35 AM 47.1°F8.4°C 42.4°F5.8°C 84% 2.0 mph NE3.2 kmh NE 3.1 mph5.0 kmh 29.92 in1013.2 mb 0.00 in0.0 mm 0.00 in0.0 mm 0.00 in0.0 mm
03:30 AM 47.2°F8.4°C 42.3°F5.7°C 83% 1.3 mph NE2.1 kmh NE 3.1 mph5.0 kmh 29.92 in1013.2 mb 0.00 in0.0 mm 0.00 in0.0 mm 0.00 in0.0 mm
03:25 AM 47.3°F8.5°C 42.4°F5.8°C 83% 0.7 mph NE1.1 kmh NE 1.6 mph2.6 kmh 29.92 in1013.2 mb 0.00 in0.0 mm 0.00 in0.0 mm 0.00 in0.0 mm
03:20 AM 47.5°F8.6°C 42.4°F5.8°C 82% 1.7 mph NE2.7 kmh NE 3.1 mph5.0 kmh 29.92 in1013.2 mb 0.00 in0.0 mm 0.00 in0.0 mm 0.00 in0.0 mm
03:15 AM 47.7°F8.7°C 42.4°F5.8°C 82% 1.7 mph NE2.7 kmh NE 2.2 mph3.5 kmh 29.92 in1013.2 mb 0.00 in0.0 mm 0.00 in0.0 mm 0.00 in0.0 mm
03:10 AM 48.0°F8.9°C 42.8°F6.0°C 82% 1.1 mph NE1.8 kmh NE 2.2 mph3.5 kmh 29.91 in1012.9 mb 0.00 in0.0 mm 0.00 in0.0 mm 0.00 in0.0 mm
03:05 AM 48.2°F9.0°C 43.0°F6.1°C 82% 0.7 mph 1.1 kmh 1.6 mph2.6 kmh 29.91 in1012.9 mb 0.00 in0.0 mm 0.00 in0.0 mm 0.00 in0.0 mm
03:00 AM 48.3°F9.1°C 43.0°F6.1°C 82% 0.8 mph NNE1.3 kmh NNE 2.2 mph3.5 kmh 29.91 in1012.9 mb 0.00 in0.0 mm 0.00 in0.0 mm 0.00 in0.0 mm
02:55 AM 48.5°F9.2°C 43.2°F6.2°C 82% 0.9 mph NE1.4 kmh NE 1.6 mph2.6 kmh 29.91 in1012.9 mb 0.00 in0.0 mm 0.00 in0.0 mm 0.00 in0.0 mm
02:50 AM 48.7°F9.3°C 43.4°F6.3°C 82% 0.7 mph NE1.1 kmh NE 1.6 mph2.6 kmh 29.92 in1013.2 mb 0.00 in0.0 mm 0.00 in0.0 mm 0.00 in0.0 mm
02:45 AM 48.9°F9.4°C 43.7°F6.5°C 82% 1.6 mph NE2.6 kmh NE 3.1 mph5.0 kmh 29.91 in1012.9 mb 0.00 in0.0 mm 0.00 in0.0 mm 0.00 in0.0 mm
02:40 AM 49.2°F9.6°C 43.9°F6.6°C 82% 1.9 mph NE3.1 kmh NE 3.1 mph5.0 kmh 29.92 in1013.2 mb 0.00 in0.0 mm 0.00 in0.0 mm 0.00 in0.0 mm
02:35 AM 49.4°F9.7°C 44.2°F6.8°C 82% Calm Calm -- 29.92 in1013.2 mb 0.00 in0.0 mm 0.00 in0.0 mm 0.00 in0.0 mm
02:30 AM 49.7°F9.8°C 44.5°F6.9°C 82% 0.5 mph NE0.8 kmh NE 1.6 mph2.6 kmh 29.92 in1013.2 mb 0.00 in0.0 mm 0.00 in0.0 mm 0.00 in0.0 mm
02:25 AM 49.9°F9.9°C 44.6°F7.0°C 82% 1.2 mph N1.9 kmh N 2.2 mph3.5 kmh 29.92 in1013.2 mb 0.00 in0.0 mm 0.00 in0.0 mm 0.00 in0.0 mm
02:20 AM 50.1°F10.1°C 44.8°F7.1°C 82% 1.3 mph NE2.1 kmh NE 2.2 mph3.5 kmh 29.92 in1013.2 mb 0.00 in0.0 mm 0.00 in0.0 mm 0.00 in0.0 mm
02:15 AM 50.3°F10.2°C 45.0°F7.2°C 82% 1.4 mph NE2.3 kmh NE 3.1 mph5.0 kmh 29.92 in1013.2 mb 0.00 in0.0 mm 0.00 in0.0 mm 0.00 in0.0 mm
02:10 AM 50.4°F10.2°C 45.1°F7.3°C 82% 0.4 mph NE0.6 kmh NE 1.6 mph2.6 kmh 29.92 in1013.2 mb 0.00 in0.0 mm 0.00 in0.0 mm 0.00 in0.0 mm
02:05 AM 50.5°F10.3°C 44.9°F7.2°C 81% Calm Calm 0.7 mph1.1 kmh 29.93 in1013.5 mb 0.00 in0.0 mm 0.00 in0.0 mm 0.00 in0.0 mm
02:00 AM 50.7°F10.4°C 45.1°F7.3°C 81% 0.3 mph W0.5 kmh W 1.6 mph2.6 kmh 29.93 in1013.5 mb 0.00 in0.0 mm 0.00 in0.0 mm 0.00 in0.0 mm
01:55 AM 50.8°F10.4°C 45.0°F7.2°C 80% 0.1 mph NE0.2 kmh NE 1.6 mph2.6 kmh 29.92 in1013.2 mb 0.00 in0.0 mm 0.00 in0.0 mm 0.00 in0.0 mm
01:50 AM 51.1°F10.6°C 45.2°F7.3°C 80% 0.3 mph NE0.5 kmh NE 1.6 mph2.6 kmh 29.92 in1013.2 mb 0.00 in0.0 mm 0.00 in0.0 mm 0.00 in0.0 mm
01:45 AM 51.3°F10.7°C 45.2°F7.3°C 80% 0.3 mph NW0.5 kmh NW 1.6 mph2.6 kmh 29.92 in1013.2 mb 0.00 in0.0 mm 0.00 in0.0 mm 0.00 in0.0 mm
01:40 AM 51.6°F10.9°C 45.3°F7.4°C 79% 0.3 mph NW0.5 kmh NW 1.6 mph2.6 kmh 29.92 in1013.2 mb 0.00 in0.0 mm 0.00 in0.0 mm 0.00 in0.0 mm
01:35 AM 51.9°F11.1°C 45.4°F7.4°C 78% 0.2 mph WSW0.3 kmh WSW 1.6 mph2.6 kmh 29.92 in1013.2 mb 0.00 in0.0 mm 0.00 in0.0 mm 0.00 in0.0 mm
01:30 AM 52.3°F11.3°C 45.6°F7.6°C 78% Calm Calm 0.7 mph1.1 kmh 29.92 in1013.2 mb 0.00 in0.0 mm 0.00 in0.0 mm 0.00 in0.0 mm
01:25 AM 52.6°F11.4°C 45.6°F7.6°C 77% 0.1 mph 0.2 kmh 1.6 mph2.6 kmh 29.92 in1013.2 mb 0.00 in0.0 mm 0.00 in0.0 mm 0.00 in0.0 mm
01:20 AM 53.0°F11.7°C 46.0°F7.8°C 77% 0.7 mph NNE1.1 kmh NNE 1.6 mph2.6 kmh 29.92 in1013.2 mb 0.00 in0.0 mm 0.00 in0.0 mm 0.00 in0.0 mm
01:15 AM 53.4°F11.9°C 46.0°F7.8°C 76% 0.3 mph SE0.5 kmh SE 1.6 mph2.6 kmh 29.92 in1013.2 mb 0.00 in0.0 mm 0.00 in0.0 mm 0.00 in0.0 mm
01:10 AM 53.8°F12.1°C 46.1°F7.8°C 75% 0.9 mph NNW1.4 kmh NNW 3.1 mph5.0 kmh 29.92 in1013.2 mb 0.00 in0.0 mm 0.00 in0.0 mm 0.00 in0.0 mm
01:05 AM 54.1°F12.3°C 46.4°F8.0°C 75% 2.2 mph 3.5 kmh 3.1 mph5.0 kmh 29.92 in1013.2 mb 0.00 in0.0 mm 0.00 in0.0 mm 0.00 in0.0 mm
01:00 AM 54.3°F12.4°C 46.5°F8.1°C 75% 2.6 mph N4.2 kmh N 3.8 mph6.1 kmh 29.92 in1013.2 mb 0.00 in0.0 mm 0.00 in0.0 mm 0.00 in0.0 mm
12:55 AM 54.6°F12.6°C 46.5°F8.1°C 74% 3.9 mph 6.3 kmh 5.4 mph8.7 kmh 29.92 in1013.2 mb 0.00 in0.0 mm 0.00 in0.0 mm 0.00 in0.0 mm
12:50 AM 55.1°F12.8°C 45.8°F7.7°C 71% 2.5 mph NNE4.0 kmh NNE 5.4 mph8.7 kmh 29.92 in1013.2 mb 0.00 in0.0 mm 0.00 in0.0 mm 0.00 in0.0 mm
12:45 AM 55.5°F13.1°C 45.9°F7.7°C 70% 1.9 mph NW3.1 kmh NW 3.8 mph6.1 kmh 29.92 in1013.2 mb 0.00 in0.0 mm 0.00 in0.0 mm 0.00 in0.0 mm
12:40 AM 55.9°F13.3°C 46.3°F7.9°C 70% 2.1 mph NNW3.4 kmh NNW 3.1 mph5.0 kmh 29.92 in1013.2 mb 0.00 in0.0 mm 0.00 in0.0 mm 0.00 in0.0 mm
12:35 AM 56.2°F13.4°C 46.6°F8.1°C 70% 1.6 mph NNW2.6 kmh NNW 2.2 mph3.5 kmh 29.92 in1013.2 mb 0.00 in0.0 mm 0.00 in0.0 mm 0.00 in0.0 mm
12:30 AM 56.6°F13.7°C 47.0°F8.3°C 70% 2.1 mph NE3.4 kmh NE 3.1 mph5.0 kmh 29.92 in1013.2 mb 0.00 in0.0 mm 0.00 in0.0 mm 0.00 in0.0 mm
12:25 AM 57.1°F13.9°C 46.9°F8.3°C 69% 1.8 mph N2.9 kmh N 3.1 mph5.0 kmh 29.91 in1012.9 mb 0.00 in0.0 mm 0.00 in0.0 mm 0.00 in0.0 mm
12:20 AM 57.5°F14.2°C 47.0°F8.3°C 68% 3.0 mph NW4.8 kmh NW 4.5 mph7.2 kmh 29.91 in1012.9 mb 0.00 in0.0 mm 0.00 in0.0 mm 0.00 in0.0 mm
12:15 AM 57.8°F14.3°C 47.0°F8.3°C 67% 3.9 mph NW6.3 kmh NW 4.5 mph7.2 kmh 29.91 in1012.9 mb 0.00 in0.0 mm 0.00 in0.0 mm 0.00 in0.0 mm
12:10 AM 58.2°F14.6°C 47.1°F8.4°C 67% 2.6 mph NW4.2 kmh NW 4.5 mph7.2 kmh 29.91 in1012.9 mb 0.00 in0.0 mm 0.00 in0.0 mm 0.00 in0.0 mm
12:05 AM 58.5°F14.7°C 47.1°F8.4°C 66% 1.0 mph NNW1.6 kmh NNW 2.2 mph3.5 kmh 29.91 in1012.9 mb 0.00 in0.0 mm 0.00 in0.0 mm 0.00 in0.0 mm
12:00 AM 58.7°F14.8°C 47.0°F8.3°C 65% 1.9 mph N3.1 kmh N 4.5 mph7.2 kmh 29.91 in1012.9 mb 0.00 in0.0 mm 0.00 in0.0 mm 0.00 in0.0 mm